Time;durP1;ratioP1;P1;durP2;ratioP2;P2;SDS_P1;SDS_P2;PMS_P1;PMS_P2;Temp;Humidity;BMP_temperature;BMP_pressure;BME280_temperature;BME280_humidity;BME280_pressure;Samples;Min_cycle;Max_cycle;Signal;HPM_P1;HPM_P2
2023/01/03 00:01:59;;;;;;;;;;;8.40;99.90;;;;;;5089217;28;20365;-70
2023/01/03 00:04:25;;;;;;;;;;;8.40;99.90;;;;;;5078066;28;20007;-71
2023/01/03 00:06:51;;;;;;;;;;;8.40;99.90;;;;;;5089227;28;20410;-70
2023/01/03 00:09:20;;;;;;;;;;;8.40;99.90;;;;;;5088925;28;19919;-70
2023/01/03 00:14:32;;;;;;;;;;;8.40;99.90;;;;;;5089299;28;20410;-70
2023/01/03 00:16:58;;;;;;;;;;;8.40;99.90;;;;;;5088743;28;19919;-70
2023/01/03 00:19:25;;;;;;;;;;;8.30;99.90;;;;;;5089044;28;20403;-70
2023/01/03 00:21:50;;;;;;;;;;;8.30;99.90;;;;;;5088811;28;20307;-70
2023/01/03 00:24:16;;;;;;;;;;;8.30;99.90;;;;;;5088679;28;19912;-70
2023/01/03 00:26:41;;;;;;;;;;;8.30;99.90;;;;;;5087962;28;20006;-70
2023/01/03 00:29:07;;;;;;;;;;;8.30;99.90;;;;;;5087930;28;19915;-70
2023/01/03 00:31:34;;;;;;;;;;;8.30;99.90;;;;;;5086726;28;19989;-70
2023/01/03 00:33:59;;;;;;;;;;;8.30;99.90;;;;;;5088002;28;19912;-70
2023/01/03 00:36:25;;;;;;;;;;;8.20;99.90;;;;;;5088176;28;19922;-70
2023/01/03 00:38:50;;;;;;;;;;;8.30;99.90;;;;;;5088733;28;19911;-70
2023/01/03 00:41:16;;;;;;;;;;;8.20;99.90;;;;;;5069879;28;19920;-71
2023/01/03 00:43:43;;;;;;;;;;;8.20;99.90;;;;;;5088429;28;20361;-71
2023/01/03 00:46:09;;;;;;;;;;;8.20;99.90;;;;;;5085221;28;19973;-70
2023/01/03 00:48:35;;;;;;;;;;;8.20;99.90;;;;;;5088158;28;19916;-70
2023/01/03 00:51:05;;;;;;;;;;;8.20;99.90;;;;;;5087845;28;19962;-70
2023/01/03 00:53:30;;;;;;;;;;;8.20;99.90;;;;;;5088539;28;20383;-71
2023/01/03 00:56:00;;;;;;;;;;;8.20;99.90;;;;;;5070187;28;19908;-71
2023/01/03 00:58:28;;;;;;;;;;;8.20;99.90;;;;;;5087711;28;19912;-70
2023/01/03 01:00:53;;;;;;;;;;;8.10;99.90;;;;;;5087476;28;19915;-71
2023/01/03 01:03:19;;;;;;;;;;;8.10;99.90;;;;;;5088127;28;19912;-71
2023/01/03 01:05:44;;;;;;;;;;;8.10;99.90;;;;;;5088102;28;19927;-72
2023/01/03 01:08:10;;;;;;;;;;;8.10;99.90;;;;;;5088122;28;19912;-72
2023/01/03 01:10:40;;;;;;;;;;;8.10;99.90;;;;;;5087265;28;19908;-70
2023/01/03 01:13:06;;;;;;;;;;;8.10;99.90;;;;;;5087649;28;20462;-70
2023/01/03 01:15:32;;;;;;;;;;;8.10;99.90;;;;;;5087298;28;19958;-71
2023/01/03 01:17:58;;;;;;;;;;;8.10;99.90;;;;;;5087281;28;19919;-70
2023/01/03 01:20:23;;;;;;;;;;;8.10;99.90;;;;;;5086703;28;20276;-71
2023/01/03 01:22:49;;;;;;;;;;;8.10;99.90;;;;;;5087723;28;19914;-70
2023/01/03 01:25:14;;;;;;;;;;;8.00;99.90;;;;;;5087682;28;19916;-70
2023/01/03 01:27:40;;;;;;;;;;;8.00;99.90;;;;;;5069403;28;19991;-70
2023/01/03 01:30:05;;;;;;;;;;;8.00;99.90;;;;;;5069199;28;20523;-70
2023/01/03 01:32:31;;;;;;;;;;;8.00;99.90;;;;;;5087788;28;19912;-70
2023/01/03 01:34:56;;;;;;;;;;;8.00;99.90;;;;;;5087500;28;19912;-70
2023/01/03 01:37:22;;;;;;;;;;;8.00;99.90;;;;;;5087521;28;19919;-69
2023/01/03 01:39:47;;;;;;;;;;;8.00;99.90;;;;;;5087264;28;20684;-70
2023/01/03 01:44:58;;;;;;;;;;;7.90;99.90;;;;;;5084380;28;19937;-70
2023/01/03 01:47:24;;;;;;;;;;;8.00;99.90;;;;;;5086901;28;19965;-70
2023/01/03 01:49:51;;;;;;;;;;;8.00;99.90;;;;;;5068693;28;19912;-70
2023/01/03 01:52:19;;;;;;;;;;;8.00;99.90;;;;;;5087190;28;20007;-70
2023/01/03 01:54:44;;;;;;;;;;;7.90;99.90;;;;;;5087391;28;20012;-71
2023/01/03 01:57:14;;;;;;;;;;;8.00;99.90;;;;;;5087190;28;20003;-70
2023/01/03 01:59:39;;;;;;;;;;;7.90;99.90;;;;;;5086982;28;19912;-70
2023/01/03 02:02:05;;;;;;;;;;;7.90;99.90;;;;;;5086761;28;19920;-70
2023/01/03 02:04:32;;;;;;;;;;;7.90;99.90;;;;;;5068735;28;19916;-71
2023/01/03 02:06:58;;;;;;;;;;;7.90;99.90;;;;;;5086618;28;19913;-71
2023/01/03 02:09:24;;;;;;;;;;;7.90;99.90;;;;;;5086843;28;19931;-70
2023/01/03 02:15:07;;;;;;;;;;;7.90;99.90;;;;;;5086778;28;19927;-70
2023/01/03 02:17:42;;;;;;;;;;;7.90;99.90;;;;;;5078716;28;19913;-70
2023/01/03 02:20:13;;;;;;;;;;;7.80;99.90;;;;;;5086574;28;19977;-71
2023/01/03 02:22:47;;;;;;;;;;;7.90;99.90;;;;;;5087053;28;19944;-70
2023/01/03 02:25:21;;;;;;;;;;;7.90;99.90;;;;;;5086964;28;20401;-70
2023/01/03 02:27:49;;;;;;;;;;;7.90;99.90;;;;;;5087132;28;19912;-69
2023/01/03 02:30:27;;;;;;;;;;;7.80;99.90;;;;;;5086798;28;19923;-70
2023/01/03 02:33:04;;;;;;;;;;;7.80;99.90;;;;;;5076545;28;20400;-70
2023/01/03 02:35:46;;;;;;;;;;;7.80;99.90;;;;;;5086790;28;20585;-70
2023/01/03 02:38:17;;;;;;;;;;;7.80;99.90;;;;;;5086465;28;19912;-70
2023/01/03 02:40:44;;;;;;;;;;;7.80;99.90;;;;;;5068159;28;20042;-70
2023/01/03 02:43:25;;;;;;;;;;;7.80;99.90;;;;;;5086831;28;19965;-70
2023/01/03 02:45:53;;;;;;;;;;;7.80;99.90;;;;;;5086064;28;19966;-70
2023/01/03 02:48:27;;;;;;;;;;;7.80;99.90;;;;;;5086603;28;19912;-70
2023/01/03 02:50:56;;;;;;;;;;;7.90;99.90;;;;;;5086431;28;19947;-70
2023/01/03 02:53:27;;;;;;;;;;;7.80;99.90;;;;;;5086740;28;19945;-70
2023/01/03 02:55:55;;;;;;;;;;;7.80;99.90;;;;;;5068397;28;20004;-70
2023/01/03 02:58:22;;;;;;;;;;;7.90;99.90;;;;;;5086685;28;19938;-71
2023/01/03 03:00:50;;;;;;;;;;;7.90;99.90;;;;;;5086152;28;19998;-71
2023/01/03 03:03:18;;;;;;;;;;;7.90;99.90;;;;;;5086855;28;19922;-71
2023/01/03 03:05:46;;;;;;;;;;;7.90;99.90;;;;;;5086698;28;20269;-70
2023/01/03 03:08:12;;;;;;;;;;;7.90;99.90;;;;;;5086651;28;19958;-71
2023/01/03 03:13:28;;;;;;;;;;;7.90;99.90;;;;;;5086518;28;20402;-70
2023/01/03 03:15:56;;;;;;;;;;;7.90;99.90;;;;;;5086470;28;19912;-70
2023/01/03 03:18:32;;;;;;;;;;;7.90;99.90;;;;;;5086438;28;19977;-71
2023/01/03 03:26:31;;;;;;;;;;;7.90;99.90;;;;;;5090146;28;19923;-71
2023/01/03 03:28:58;;;;;;;;;;;7.90;99.90;;;;;;5089992;28;19908;-70
2023/01/03 03:31:44;;;;;;;;;;;7.80;99.90;;;;;;5089304;28;19980;-70
2023/01/03 03:34:10;;;;;;;;;;;7.90;99.90;;;;;;5060257;28;19912;-70
2023/01/03 03:36:35;;;;;;;;;;;7.90;99.90;;;;;;5089298;28;19980;-70
2023/01/03 03:39:01;;;;;;;;;;;7.80;99.90;;;;;;5088785;28;20554;-70
2023/01/03 03:47:24;;;;;;;;;;;7.80;99.90;;;;;;5088021;28;19918;-71
2023/01/03 03:49:51;;;;;;;;;;;7.80;99.90;;;;;;5089233;28;19918;-70
2023/01/03 03:52:19;;;;;;;;;;;7.80;99.90;;;;;;5088973;28;19966;-70
2023/01/03 03:54:49;;;;;;;;;;;7.80;99.90;;;;;;5089009;28;20313;-70
2023/01/03 03:57:21;;;;;;;;;;;7.80;99.90;;;;;;5089284;28;19922;-70
2023/01/03 03:59:49;;;;;;;;;;;7.80;99.90;;;;;;5088610;28;19912;-70
2023/01/03 04:02:14;;;;;;;;;;;7.80;99.90;;;;;;5088097;28;19923;-70
2023/01/03 04:04:42;;;;;;;;;;;7.80;99.90;;;;;;5089152;28;19916;-70
2023/01/03 04:07:08;;;;;;;;;;;7.80;99.90;;;;;;5088946;28;19909;-70
2023/01/03 04:09:33;;;;;;;;;;;7.80;99.90;;;;;;5089093;28;20287;-70
2023/01/03 04:11:59;;;;;;;;;;;7.80;99.90;;;;;;5088558;28;19912;-70
2023/01/03 04:14:24;;;;;;;;;;;7.80;99.90;;;;;;5088992;28;19924;-70
2023/01/03 04:16:50;;;;;;;;;;;7.80;99.90;;;;;;5087458;28;20340;-70
2023/01/03 04:19:15;;;;;;;;;;;7.70;99.90;;;;;;5087254;28;19939;-70
2023/01/03 04:21:41;;;;;;;;;;;7.80;99.90;;;;;;5088428;28;19919;-70
2023/01/03 04:24:07;;;;;;;;;;;7.70;99.90;;;;;;5089220;28;19908;-70
2023/01/03 04:26:32;;;;;;;;;;;7.80;99.90;;;;;;5089226;28;19955;-70
2023/01/03 04:28:58;;;;;;;;;;;7.80;99.90;;;;;;5088851;28;19912;-69
2023/01/03 04:31:23;;;;;;;;;;;7.80;99.90;;;;;;5087998;28;19982;-70
2023/01/03 04:33:49;;;;;;;;;;;7.70;99.90;;;;;;5087795;28;20343;-69
2023/01/03 04:36:17;;;;;;;;;;;7.70;99.90;;;;;;5088835;28;19916;-70
2023/01/03 04:38:42;;;;;;;;;;;7.70;99.90;;;;;;5088778;28;19908;-70
2023/01/03 04:41:08;;;;;;;;;;;7.80;99.90;;;;;;5088458;28;19974;-70
2023/01/03 04:46:18;;;;;;;;;;;7.80;99.90;;;;;;5087731;28;19965;-70
2023/01/03 04:48:44;;;;;;;;;;;7.80;99.90;;;;;;5088247;28;19912;-69
2023/01/03 04:51:10;;;;;;;;;;;7.70;99.90;;;;;;5087787;28;19927;-70
2023/01/03 04:53:35;;;;;;;;;;;7.70;99.90;;;;;;5088515;28;19923;-69
2023/01/03 04:56:01;;;;;;;;;;;7.70;99.90;;;;;;5088375;28;19912;-70
2023/01/03 04:58:26;;;;;;;;;;;7.80;99.90;;;;;;5088372;28;19920;-70
2023/01/03 05:00:57;;;;;;;;;;;7.80;99.90;;;;;;5087643;28;19920;-70
2023/01/03 05:03:23;;;;;;;;;;;7.80;99.90;;;;;;5087993;28;20473;-69
2023/01/03 05:05:48;;;;;;;;;;;7.80;99.90;;;;;;5088047;28;20015;-70
2023/01/03 05:08:14;;;;;;;;;;;7.80;99.90;;;;;;5088117;28;19997;-70
2023/01/03 05:10:40;;;;;;;;;;;7.80;99.90;;;;;;5087886;28;19912;-70
2023/01/03 05:13:06;;;;;;;;;;;7.70;99.90;;;;;;5088037;28;20018;-69
2023/01/03 05:15:33;;;;;;;;;;;7.70;99.90;;;;;;5087845;28;20003;-70
2023/01/03 05:17:59;;;;;;;;;;;7.70;99.90;;;;;;5087963;28;19912;-69
2023/01/03 05:25:56;;;;;;;;;;;7.70;99.90;;;;;;5088368;28;19970;-69
2023/01/03 05:28:22;;;;;;;;;;;7.70;99.90;;;;;;5087665;28;19947;-70
2023/01/03 05:30:48;;;;;;;;;;;7.70;99.90;;;;;;5087440;28;20414;-70
2023/01/03 05:33:13;;;;;;;;;;;7.60;99.90;;;;;;5087632;28;20002;-70
2023/01/03 05:35:39;;;;;;;;;;;7.60;99.90;;;;;;5087495;28;19961;-70
2023/01/03 05:38:04;;;;;;;;;;;7.60;99.90;;;;;;5087534;28;19916;-70
2023/01/03 05:40:30;;;;;;;;;;;7.60;99.90;;;;;;5086658;28;20345;-70
2023/01/03 05:42:55;;;;;;;;;;;7.60;99.90;;;;;;5087644;28;19912;-70
2023/01/03 05:45:24;;;;;;;;;;;7.50;99.90;;;;;;5083630;28;20385;-69
2023/01/03 05:47:50;;;;;;;;;;;7.50;99.90;;;;;;5082078;28;19923;-69
2023/01/03 05:50:16;;;;;;;;;;;7.50;99.90;;;;;;5086139;28;19916;-70
2023/01/03 05:52:41;;;;;;;;;;;7.50;99.90;;;;;;5087523;28;20281;-70
2023/01/03 05:55:07;;;;;;;;;;;7.50;99.90;;;;;;5069146;28;19912;-70
2023/01/03 05:57:32;;;;;;;;;;;7.50;99.90;;;;;;5069082;28;20541;-70
2023/01/03 05:59:58;;;;;;;;;;;7.50;99.90;;;;;;5086958;28;19977;-70
2023/01/03 06:02:23;;;;;;;;;;;7.50;99.90;;;;;;5087290;28;19980;-70
2023/01/03 06:04:49;;;;;;;;;;;7.50;99.90;;;;;;5087084;28;19912;-70
2023/01/03 06:07:14;;;;;;;;;;;7.40;99.90;;;;;;5086979;28;19916;-70
2023/01/03 06:09:39;;;;;;;;;;;7.40;99.90;;;;;;5086926;28;20423;-70
2023/01/03 06:12:05;;;;;;;;;;;7.40;99.90;;;;;;5086978;28;19912;-70
2023/01/03 06:14:30;;;;;;;;;;;7.40;99.90;;;;;;5087343;28;19916;-70
2023/01/03 06:19:40;;;;;;;;;;;7.40;99.90;;;;;;5086909;28;19954;-70
2023/01/03 06:22:05;;;;;;;;;;;7.40;99.90;;;;;;5086534;28;19948;-69
2023/01/03 06:24:31;;;;;;;;;;;7.40;99.90;;;;;;5068643;28;19908;-70
2023/01/03 06:26:56;;;;;;;;;;;7.40;99.90;;;;;;5086839;28;19948;-69
2023/01/03 06:29:22;;;;;;;;;;;7.40;99.90;;;;;;5086837;28;19912;-70
2023/01/03 06:31:47;;;;;;;;;;;7.40;99.90;;;;;;5086748;28;20573;-70
2023/01/03 06:34:13;;;;;;;;;;;7.40;99.90;;;;;;5087106;28;19912;-70
2023/01/03 06:36:38;;;;;;;;;;;7.40;99.90;;;;;;5086877;28;19919;-70
2023/01/03 06:39:04;;;;;;;;;;;7.40;99.90;;;;;;5086451;28;19915;-70
2023/01/03 06:41:29;;;;;;;;;;;7.40;99.90;;;;;;5086541;28;19919;-70
2023/01/03 06:43:55;;;;;;;;;;;7.30;99.90;;;;;;5087093;28;19917;-70
2023/01/03 06:54:37;;;;;;;;;;;7.30;99.90;;;;;;5085247;28;19961;-70
2023/01/03 06:57:03;;;;;;;;;;;7.30;99.90;;;;;;5086832;28;19912;-70
2023/01/03 06:59:28;;;;;;;;;;;7.30;99.90;;;;;;5089992;28;19919;-70
2023/01/03 07:01:54;;;;;;;;;;;7.30;99.90;;;;;;5090006;28;20015;-70
2023/01/03 07:04:20;;;;;;;;;;;7.30;99.90;;;;;;5090288;28;19974;-71
2023/01/03 07:06:45;;;;;;;;;;;7.30;99.90;;;;;;5089891;28;19916;-70
2023/01/03 07:09:11;;;;;;;;;;;7.20;99.90;;;;;;5089565;28;19916;-70
2023/01/03 07:11:37;;;;;;;;;;;7.30;99.90;;;;;;5089549;28;19912;-70
2023/01/03 07:14:04;;;;;;;;;;;7.30;99.90;;;;;;5089485;28;19931;-70
2023/01/03 07:16:50;;;;;;;;;;;7.30;99.90;;;;;;5089951;28;19912;-70
2023/01/03 07:19:16;;;;;;;;;;;7.30;99.90;;;;;;5089739;28;19916;-70
2023/01/03 07:21:42;;;;;;;;;;;7.30;99.90;;;;;;5089807;28;19916;-70
2023/01/03 07:24:10;;;;;;;;;;;7.20;99.90;;;;;;5090041;28;19915;-70
2023/01/03 07:26:36;;;;;;;;;;;7.30;99.90;;;;;;5090276;28;19916;-70
2023/01/03 07:29:04;;;;;;;;;;;7.30;99.90;;;;;;5090054;28;20470;-70
2023/01/03 07:31:31;;;;;;;;;;;7.30;99.90;;;;;;5089267;28;20026;-70
2023/01/03 07:33:57;;;;;;;;;;;7.30;99.90;;;;;;5089999;28;20433;-70
2023/01/03 07:36:22;;;;;;;;;;;7.30;99.90;;;;;;5089921;28;19946;-70
2023/01/03 07:38:48;;;;;;;;;;;7.30;99.90;;;;;;5089801;28;20536;-70
2023/01/03 07:41:14;;;;;;;;;;;7.30;99.90;;;;;;5089522;28;20380;-70
2023/01/03 07:43:41;;;;;;;;;;;7.20;99.90;;;;;;5089906;28;19912;-70
2023/01/03 07:46:17;;;;;;;;;;;7.30;99.90;;;;;;5088760;28;19951;-70
2023/01/03 07:48:43;;;;;;;;;;;7.30;99.90;;;;;;5069217;28;19919;-70
2023/01/03 07:51:09;;;;;;;;;;;7.30;99.90;;;;;;5050938;28;19967;-70
2023/01/03 07:53:35;;;;;;;;;;;7.30;99.90;;;;;;5069295;28;20001;-69
2023/01/03 07:56:02;;;;;;;;;;;7.30;99.90;;;;;;5069287;28;20510;-70
2023/01/03 07:58:27;;;;;;;;;;;7.30;99.90;;;;;;5069298;28;19961;-70
2023/01/03 08:00:53;;;;;;;;;;;7.30;99.90;;;;;;5068763;28;19920;-70
2023/01/03 08:03:18;;;;;;;;;;;7.30;99.90;;;;;;5054666;28;19990;-70
2023/01/03 08:05:44;;;;;;;;;;;7.30;99.90;;;;;;5089627;28;19908;-70
2023/01/03 08:08:09;;;;;;;;;;;7.30;99.90;;;;;;5089110;28;20459;-70
2023/01/03 08:13:19;;;;;;;;;;;7.30;99.90;;;;;;5089173;28;19966;-69
2023/01/03 08:15:46;;;;;;;;;;;7.30;99.90;;;;;;5088645;28;19920;-70
2023/01/03 08:18:11;;;;;;;;;;;7.30;99.90;;;;;;5089017;28;19939;-69
2023/01/03 08:20:37;;;;;;;;;;;7.30;99.90;;;;;;5088358;28;20065;-70
2023/01/03 08:23:03;;;;;;;;;;;7.30;99.90;;;;;;5088847;28;19961;-70
2023/01/03 08:25:28;;;;;;;;;;;7.30;99.90;;;;;;5089015;28;19912;-70
2023/01/03 08:27:57;;;;;;;;;;;7.30;99.90;;;;;;5088870;28;19912;-70
2023/01/03 08:30:22;;;;;;;;;;;7.30;99.90;;;;;;5088161;28;19912;-69
2023/01/03 08:32:48;;;;;;;;;;;7.30;99.90;;;;;;5088779;28;19912;-70
2023/01/03 08:35:15;;;;;;;;;;;7.30;99.90;;;;;;5088726;28;20019;-70
2023/01/03 08:37:43;;;;;;;;;;;7.30;99.90;;;;;;5088721;28;20653;-69
2023/01/03 08:40:09;;;;;;;;;;;7.30;99.90;;;;;;5088234;28;19998;-70
2023/01/03 08:42:36;;;;;;;;;;;7.30;99.90;;;;;;5070237;28;20023;-70
2023/01/03 08:45:03;;;;;;;;;;;7.30;99.90;;;;;;5087764;28;19915;-69
2023/01/03 08:47:29;;;;;;;;;;;7.30;99.90;;;;;;5082946;28;19994;-70
2023/01/03 08:49:55;;;;;;;;;;;7.30;99.90;;;;;;5071656;28;20244;-70
2023/01/03 08:52:21;;;;;;;;;;;7.40;99.90;;;;;;5077575;28;19916;-70
2023/01/03 08:54:46;;;;;;;;;;;7.40;99.90;;;;;;5086983;28;19915;-69
2023/01/03 08:57:12;;;;;;;;;;;7.40;99.90;;;;;;5088470;28;19912;-70
2023/01/03 08:59:38;;;;;;;;;;;7.40;99.90;;;;;;5088384;28;19912;-69
2023/01/03 09:02:04;;;;;;;;;;;7.40;99.90;;;;;;5088024;28;19923;-70
2023/01/03 09:04:29;;;;;;;;;;;7.40;99.90;;;;;;5096581;28;19919;-70
2023/01/03 09:06:55;;;;;;;;;;;7.40;99.90;;;;;;5102170;28;20630;-69
2023/01/03 09:09:21;;;;;;;;;;;7.40;99.90;;;;;;5100266;28;20294;-71
2023/01/03 09:11:46;;;;;;;;;;;7.40;99.90;;;;;;5088107;28;19912;-69
2023/01/03 09:14:12;;;;;;;;;;;7.40;99.90;;;;;;5088027;28;20353;-69
2023/01/03 09:16:37;;;;;;;;;;;7.50;99.90;;;;;;5087422;28;19916;-70
2023/01/03 09:19:03;;;;;;;;;;;7.40;99.90;;;;;;5087304;28;20634;-69
2023/01/03 09:21:28;;;;;;;;;;;7.40;99.90;;;;;;5069108;28;19961;-70
2023/01/03 09:23:54;;;;;;;;;;;7.40;99.90;;;;;;5087833;28;20534;-70
2023/01/03 09:26:19;;;;;;;;;;;7.50;99.90;;;;;;5087665;28;19919;-69
2023/01/03 09:28:45;;;;;;;;;;;7.50;99.90;;;;;;5087619;28;19916;-70
2023/01/03 09:31:10;;;;;;;;;;;7.50;99.90;;;;;;5087069;28;19994;-69
2023/01/03 09:33:36;;;;;;;;;;;7.50;99.90;;;;;;5087648;28;19908;-70
2023/01/03 09:36:01;;;;;;;;;;;7.50;99.90;;;;;;5087678;28;20003;-70
2023/01/03 09:38:27;;;;;;;;;;;7.50;99.90;;;;;;5087631;28;19922;-70
2023/01/03 09:40:58;;;;;;;;;;;7.50;99.90;;;;;;5069232;28;19919;-69
2023/01/03 09:43:27;;;;;;;;;;;7.50;99.90;;;;;;5087483;28;19916;-70
2023/01/03 09:45:57;;;;;;;;;;;7.50;99.90;;;;;;5084133;28;19912;-70
2023/01/03 09:48:33;;;;;;;;;;;7.50;99.90;;;;;;5087429;28;20356;-69
2023/01/03 09:50:59;;;;;;;;;;;7.50;99.90;;;;;;5069039;28;20494;-69
2023/01/03 10:05:00;;;;;;;;;;;7.60;99.90;;;;;;5085947;28;19934;-69
2023/01/03 10:08:04;;;;;;;;;;;7.60;99.90;;;;;;5086445;28;20024;-69
2023/01/03 10:10:50;;;;;;;;;;;7.60;99.90;;;;;;5024064;28;19913;-69
2023/01/03 10:13:27;;;;;;;;;;;7.70;99.90;;;;;;5024187;28;19929;-70
2023/01/03 10:15:53;;;;;;;;;;;7.70;99.90;;;;;;5066805;28;19912;-71
2023/01/03 10:18:24;;;;;;;;;;;7.70;99.90;;;;;;5086988;28;20242;-69
2023/01/03 10:21:01;;;;;;;;;;;7.70;99.90;;;;;;5086130;28;19973;-70
2023/01/03 10:23:28;;;;;;;;;;;7.70;99.90;;;;;;5087055;28;20372;-70
2023/01/03 10:25:55;;;;;;;;;;;7.80;99.90;;;;;;5087212;28;20319;-70
2023/01/03 10:28:23;;;;;;;;;;;7.80;99.90;;;;;;5087099;28;19912;-69
2023/01/03 10:30:48;;;;;;;;;;;7.80;99.90;;;;;;5088068;28;20300;-70
2023/01/03 10:33:32;;;;;;;;;;;7.80;99.90;;;;;;5091231;28;19920;-70
2023/01/03 10:35:57;;;;;;;;;;;7.80;99.90;;;;;;5091088;28;19920;-71
2023/01/03 10:38:24;;;;;;;;;;;7.90;99.90;;;;;;5090660;28;19916;-70
2023/01/03 10:41:00;;;;;;;;;;;7.90;99.90;;;;;;5072273;28;19919;-70
2023/01/03 10:43:25;;;;;;;;;;;7.90;99.90;;;;;;5091008;28;19924;-71
2023/01/03 10:45:56;;;;;;;;;;;7.90;99.90;;;;;;5090180;28;19912;-71
2023/01/03 10:48:22;;;;;;;;;;;7.90;99.90;;;;;;5090554;28;19912;-70
2023/01/03 10:50:49;;;;;;;;;;;7.90;99.90;;;;;;5090303;28;20752;-71
2023/01/03 10:53:16;;;;;;;;;;;7.90;99.90;;;;;;5090630;28;19969;-70
2023/01/03 10:55:50;;;;;;;;;;;7.90;99.90;;;;;;5090253;28;19992;-70
2023/01/03 10:58:15;;;;;;;;;;;7.90;99.90;;;;;;5090884;28;19916;-70
2023/01/03 11:00:42;;;;;;;;;;;7.90;99.90;;;;;;5090342;28;19919;-71
2023/01/03 11:03:08;;;;;;;;;;;7.90;99.90;;;;;;5070120;28;19914;-70
2023/01/03 11:05:34;;;;;;;;;;;7.90;99.90;;;;;;5070228;28;19912;-70
2023/01/03 11:08:01;;;;;;;;;;;7.90;99.90;;;;;;5070233;28;20011;-71
2023/01/03 11:10:33;;;;;;;;;;;7.90;99.90;;;;;;5070059;28;19909;-71
2023/01/03 11:12:59;;;;;;;;;;;8.00;99.90;;;;;;5075407;28;20007;-70
2023/01/03 11:15:31;;;;;;;;;;;8.00;99.90;;;;;;5087512;28;20625;-70
2023/01/03 11:18:01;;;;;;;;;;;8.00;99.90;;;;;;5083779;28;20338;-71
2023/01/03 11:20:42;;;;;;;;;;;8.00;99.90;;;;;;5090054;28;19912;-71
2023/01/03 11:23:15;;;;;;;;;;;8.00;99.90;;;;;;5090133;28;19912;-71
2023/01/03 11:25:44;;;;;;;;;;;8.00;99.90;;;;;;5090480;28;19919;-71
2023/01/03 11:28:19;;;;;;;;;;;8.00;99.90;;;;;;5071658;28;19912;-71
2023/01/03 11:30:54;;;;;;;;;;;8.00;99.90;;;;;;5071580;28;19923;-71
2023/01/03 11:33:26;;;;;;;;;;;8.00;99.90;;;;;;5090131;28;20281;-71
2023/01/03 11:36:15;;;;;;;;;;;8.00;99.90;;;;;;5090132;28;20011;-70
2023/01/03 11:38:45;;;;;;;;;;;8.10;99.90;;;;;;5089707;28;20005;-70
2023/01/03 11:41:17;;;;;;;;;;;8.10;99.90;;;;;;5089647;28;20277;-71
2023/01/03 11:43:51;;;;;;;;;;;8.10;99.90;;;;;;5089450;28;20400;-71
2023/01/03 11:46:17;;;;;;;;;;;8.10;99.90;;;;;;5085931;28;19911;-70
2023/01/03 11:48:56;;;;;;;;;;;8.10;99.90;;;;;;5083963;28;19912;-71
2023/01/03 11:51:22;;;;;;;;;;;8.10;99.90;;;;;;5062390;28;19912;-71
2023/01/03 11:53:56;;;;;;;;;;;8.10;99.90;;;;;;5089690;28;19912;-71
2023/01/03 11:56:22;;;;;;;;;;;8.20;99.90;;;;;;5089704;28;20374;-71
2023/01/03 11:58:53;;;;;;;;;;;8.20;99.90;;;;;;5089790;28;19947;-71
2023/01/03 12:01:30;;;;;;;;;;;8.20;99.90;;;;;;5089008;28;20304;-71
2023/01/03 12:03:59;;;;;;;;;;;8.20;99.90;;;;;;5089637;28;19951;-71
2023/01/03 12:06:34;;;;;;;;;;;8.20;99.90;;;;;;5070977;28;19908;-70
2023/01/03 12:09:09;;;;;;;;;;;8.20;99.90;;;;;;5089352;28;19937;-70
2023/01/03 12:11:47;;;;;;;;;;;8.20;99.90;;;;;;5088931;28;20510;-71
2023/01/03 12:14:16;;;;;;;;;;;8.20;99.90;;;;;;5089316;28;19920;-70
2023/01/03 12:16:44;;;;;;;;;;;8.20;99.90;;;;;;5088943;28;19951;-70
2023/01/03 12:19:20;;;;;;;;;;;8.20;99.90;;;;;;5089329;28;19912;-70
2023/01/03 12:21:54;;;;;;;;;;;8.30;99.90;;;;;;5088767;28;19927;-71
2023/01/03 12:24:35;;;;;;;;;;;8.20;99.90;;;;;;5089269;28;19916;-71
2023/01/03 12:27:07;;;;;;;;;;;8.30;99.90;;;;;;5088924;28;20458;-70
2023/01/03 12:29:40;;;;;;;;;;;8.30;99.90;;;;;;5088902;28;19908;-70
2023/01/03 12:32:09;;;;;;;;;;;8.30;99.90;;;;;;5088735;28;19920;-71
2023/01/03 12:34:46;;;;;;;;;;;8.40;99.90;;;;;;5088632;28;20383;-70
2023/01/03 12:37:11;;;;;;;;;;;8.40;99.90;;;;;;5088777;28;19919;-70
2023/01/03 12:39:37;;;;;;;;;;;8.40;99.90;;;;;;5088377;28;19912;-71
2023/01/03 12:42:03;;;;;;;;;;;8.50;99.90;;;;;;5071865;28;19920;-71
2023/01/03 12:44:31;;;;;;;;;;;8.50;99.90;;;;;;5060242;28;19912;-70
2023/01/03 12:46:56;;;;;;;;;;;8.50;99.90;;;;;;5088038;28;19995;-70
2023/01/03 12:49:39;;;;;;;;;;;8.50;99.90;;;;;;5081887;28;20424;-71
2023/01/03 12:52:08;;;;;;;;;;;8.50;99.90;;;;;;5088375;28;19919;-71
2023/01/03 12:54:43;;;;;;;;;;;8.50;99.90;;;;;;5087589;28;19946;-70
2023/01/03 12:57:17;;;;;;;;;;;8.50;99.90;;;;;;5088127;28;20586;-70
2023/01/03 13:00:01;;;;;;;;;;;8.60;99.90;;;;;;5087779;28;19908;-70
2023/01/03 13:02:45;;;;;;;;;;;8.60;99.90;;;;;;5086951;28;20281;-71
2023/01/03 13:05:20;;;;;;;;;;;8.60;99.90;;;;;;5086936;28;19911;-70
2023/01/03 13:07:50;;;;;;;;;;;8.60;99.90;;;;;;5088136;28;19920;-70
2023/01/03 13:10:17;;;;;;;;;;;8.60;99.90;;;;;;5087249;28;19923;-70
2023/01/03 13:12:48;;;;;;;;;;;8.60;99.90;;;;;;5086710;28;19923;-70
2023/01/03 13:15:24;;;;;;;;;;;8.60;99.90;;;;;;5103505;27;19945;-70
2023/01/03 13:17:49;;;;;;;;;;;8.60;99.90;;;;;;5101950;28;19955;-70
2023/01/03 13:20:24;;;;;;;;;;;8.60;99.90;;;;;;5101222;28;20008;-71
2023/01/03 13:22:49;;;;;;;;;;;8.60;99.90;;;;;;5102281;28;19919;-71
2023/01/03 13:25:29;;;;;;;;;;;8.60;99.90;;;;;;5104173;28;19912;-71
2023/01/03 13:27:55;;;;;;;;;;;8.60;99.90;;;;;;5102415;28;19958;-70
2023/01/03 13:30:21;;;;;;;;;;;8.60;99.90;;;;;;5103525;28;19912;-71
2023/01/03 13:33:03;;;;;;;;;;;8.60;99.90;;;;;;5103538;28;19915;-70
2023/01/03 13:35:33;;;;;;;;;;;8.60;99.90;;;;;;5103236;28;19919;-71
2023/01/03 13:38:09;;;;;;;;;;;8.60;99.90;;;;;;5103529;28;20288;-71
2023/01/03 13:40:35;;;;;;;;;;;8.60;99.90;;;;;;5103377;28;19969;-70
2023/01/03 13:43:02;;;;;;;;;;;8.50;99.90;;;;;;5103428;28;19912;-71
2023/01/03 13:45:28;;;;;;;;;;;8.50;99.90;;;;;;5089242;28;20635;-70
2023/01/03 13:47:54;;;;;;;;;;;8.50;99.90;;;;;;5096143;28;19937;-71
2023/01/03 13:50:21;;;;;;;;;;;8.60;99.90;;;;;;5102625;28;19980;-71
2023/01/03 13:52:55;;;;;;;;;;;8.60;99.90;;;;;;5102724;28;19916;-71
2023/01/03 13:55:32;;;;;;;;;;;8.60;99.90;;;;;;5103520;28;19923;-71
2023/01/03 13:57:58;;;;;;;;;;;8.50;99.90;;;;;;5103431;28;20500;-70
2023/01/03 14:00:24;;;;;;;;;;;8.60;99.90;;;;;;5103162;28;20318;-70
2023/01/03 14:02:52;;;;;;;;;;;8.50;99.90;;;;;;5102985;28;19912;-71
2023/01/03 14:05:19;;;;;;;;;;;8.60;99.90;;;;;;5103247;28;20003;-70
2023/01/03 14:08:00;;;;;;;;;;;8.60;99.90;;;;;;5101927;28;19912;-71
2023/01/03 14:10:28;;;;;;;;;;;8.60;99.90;;;;;;5103201;28;20027;-71
2023/01/03 14:12:54;;;;;;;;;;;8.60;99.90;;;;;;5097832;28;19977;-71
2023/01/03 14:15:20;;;;;;;;;;;8.60;99.90;;;;;;5083861;28;20019;-71
2023/01/03 14:17:48;;;;;;;;;;;8.60;99.90;;;;;;5102682;28;19912;-70
2023/01/03 14:20:33;;;;;;;;;;;8.60;99.90;;;;;;5102679;28;19912;-70
2023/01/03 14:23:01;;;;;;;;;;;8.60;99.90;;;;;;5102813;28;19912;-71
2023/01/03 14:25:36;;;;;;;;;;;8.60;99.90;;;;;;5096411;28;19916;-71
2023/01/03 14:28:14;;;;;;;;;;;8.60;99.90;;;;;;5075906;28;20022;-71
2023/01/03 14:30:39;;;;;;;;;;;8.60;99.90;;;;;;5068727;28;19909;-71
2023/01/03 14:33:14;;;;;;;;;;;8.60;99.90;;;;;;5068784;28;19924;-71
2023/01/03 14:35:40;;;;;;;;;;;8.60;99.90;;;;;;5068913;28;20022;-70
2023/01/03 14:38:26;;;;;;;;;;;8.60;99.90;;;;;;5068343;28;19912;-71
2023/01/03 14:40:54;;;;;;;;;;;8.60;99.90;;;;;;5069350;28;19916;-70
2023/01/03 14:43:20;;;;;;;;;;;8.60;99.90;;;;;;5069278;28;20402;-71
2023/01/03 14:45:56;;;;;;;;;;;8.60;99.90;;;;;;5070042;28;20002;-71
2023/01/03 14:48:23;;;;;;;;;;;8.50;99.90;;;;;;5073669;28;19917;-71
2023/01/03 14:50:49;;;;;;;;;;;8.50;99.90;;;;;;5058677;28;20659;-71
2023/01/03 14:53:14;;;;;;;;;;;8.50;99.90;;;;;;5065969;28;19919;-70
2023/01/03 14:55:41;;;;;;;;;;;8.50;99.90;;;;;;5068667;28;19919;-70
2023/01/03 14:58:26;;;;;;;;;;;8.50;99.90;;;;;;5069695;28;20365;-70
2023/01/03 15:00:52;;;;;;;;;;;8.50;99.90;;;;;;5069108;28;19912;-71
2023/01/03 15:03:18;;;;;;;;;;;8.50;99.90;;;;;;5069527;28;20378;-71
2023/01/03 15:05:43;;;;;;;;;;;8.50;99.90;;;;;;5101875;28;19912;-70
2023/01/03 15:08:18;;;;;;;;;;;8.50;99.90;;;;;;5069549;28;19916;-70
2023/01/03 15:11:04;;;;;;;;;;;8.40;99.90;;;;;;5067742;28;19952;-71
2023/01/03 15:13:39;;;;;;;;;;;8.50;99.90;;;;;;5068393;28;19921;-71
2023/01/03 15:16:05;;;;;;;;;;;8.40;99.90;;;;;;5077557;28;19963;-71
2023/01/03 15:18:32;;;;;;;;;;;8.40;99.90;;;;;;5088679;28;19912;-71
2023/01/03 15:20:59;;;;;;;;;;;8.40;99.90;;;;;;5088806;28;20035;-70
2023/01/03 15:23:27;;;;;;;;;;;8.40;99.90;;;;;;5088793;28;19915;-70
2023/01/03 15:25:53;;;;;;;;;;;8.40;99.90;;;;;;5087780;28;19916;-71
2023/01/03 15:28:24;;;;;;;;;;;8.40;99.90;;;;;;5086665;28;19912;-71
2023/01/03 15:30:50;;;;;;;;;;;8.40;99.90;;;;;;5086303;28;19919;-71
2023/01/03 15:33:32;;;;;;;;;;;8.40;99.90;;;;;;5086316;28;19948;-71
2023/01/03 15:36:01;;;;;;;;;;;8.40;99.90;;;;;;5086066;28;19908;-71